Time;durP1;ratioP1;P1;durP2;ratioP2;P2;SDS_P1;SDS_P2;PMS_P1;PMS_P2;Temp;Humidity;BMP_temperature;BMP_pressure;BME280_temperature;BME280_humidity;BME280_pressure;Samples;Min_cycle;Max_cycle;Signal;HPM_P1;HPM_P2
2023/05/12 00:01:24;;;;;;;845.17;672.97;;;12.90;99.90;;;;;;6188749;23;20413;-95
2023/05/12 00:03:52;;;;;;;827.10;679.47;;;12.90;99.90;;;;;;6198126;23;20920;-94
2023/05/12 00:06:19;;;;;;;829.13;680.47;;;12.90;99.90;;;;;;6198221;23;20889;-94
2023/05/12 00:08:46;;;;;;;838.53;679.57;;;12.90;99.90;;;;;;6198201;23;20639;-93
2023/05/12 00:11:13;;;;;;;831.87;667.17;;;13.00;99.90;;;;;;6198065;23;20472;-94
2023/05/12 00:13:40;;;;;;;831.40;670.07;;;12.90;99.90;;;;;;6198599;23;20424;-93
2023/05/12 00:16:09;;;;;;;828.27;668.10;;;12.80;99.90;;;;;;6197961;23;20413;-94
2023/05/12 00:18:36;;;;;;;828.53;670.40;;;13.00;99.90;;;;;;6198051;23;20424;-94
2023/05/12 00:21:03;;;;;;;824.70;672.40;;;13.00;99.90;;;;;;6198067;23;20416;-94
2023/05/12 00:23:30;;;;;;;817.53;658.03;;;13.00;99.90;;;;;;6197871;23;20416;-93
2023/05/12 00:25:57;;;;;;;832.10;670.03;;;13.00;99.90;;;;;;6197658;23;20416;-93
2023/05/12 00:28:24;;;;;;;810.87;666.43;;;13.00;99.90;;;;;;6198223;23;20402;-94
2023/05/12 00:30:51;;;;;;;796.83;657.50;;;13.00;99.90;;;;;;6197734;23;20932;-95
2023/05/12 00:33:20;;;;;;;793.87;666.13;;;13.00;99.90;;;;;;6197651;23;20799;-93
2023/05/12 00:35:47;;;;;;;796.73;653.00;;;13.00;99.90;;;;;;6198281;23;20777;-94
2023/05/12 00:38:14;;;;;;;790.43;645.87;;;12.90;99.90;;;;;;6198223;23;20493;-95
2023/05/12 00:40:41;;;;;;;802.83;647.50;;;13.00;99.90;;;;;;6197920;23;20413;-94
2023/05/12 00:43:08;;;;;;;811.10;651.90;;;13.00;99.90;;;;;;6197559;23;20436;-95
2023/05/12 00:45:35;;;;;;;802.10;648.50;;;13.00;99.90;;;;;;6187615;23;20468;-94
2023/05/12 00:48:04;;;;;;;799.90;649.50;;;13.00;99.90;;;;;;6197893;23;20405;-94
2023/05/12 00:50:32;;;;;;;796.20;639.83;;;13.00;99.90;;;;;;6197420;23;20920;-94
2023/05/12 00:53:01;;;;;;;798.23;658.90;;;13.00;99.90;;;;;;6197908;23;20496;-94
2023/05/12 00:55:29;;;;;;;800.97;663.50;;;13.00;99.90;;;;;;6197687;23;20421;-95
2023/05/12 00:57:57;;;;;;;788.83;657.37;;;12.90;99.90;;;;;;6197481;23;20975;-94
2023/05/12 01:00:27;;;;;;;780.63;647.13;;;13.00;99.90;;;;;;6197306;23;20472;-93
2023/05/12 01:02:56;;;;;;;769.73;642.50;;;12.90;99.90;;;;;;6187675;23;20468;-93
2023/05/12 01:05:24;;;;;;;766.83;659.13;;;12.90;99.90;;;;;;6197487;23;20447;-93
2023/05/12 01:07:53;;;;;;;762.07;663.80;;;12.90;99.90;;;;;;6197549;23;20409;-94
2023/05/12 01:10:21;;;;;;;765.90;654.77;;;12.90;99.90;;;;;;6197566;23;20433;-94
2023/05/12 01:12:48;;;;;;;754.43;635.33;;;12.90;99.90;;;;;;6198190;23;20473;-93
2023/05/12 01:15:15;;;;;;;772.27;637.30;;;12.90;99.90;;;;;;6187733;23;20453;-93
2023/05/12 01:17:47;;;;;;;775.17;642.47;;;12.90;99.90;;;;;;6187242;23;20806;-92
2023/05/12 01:20:17;;;;;;;779.37;640.33;;;12.80;99.90;;;;;;6197050;23;20406;-94
2023/05/12 01:22:45;;;;;;;771.03;636.43;;;12.80;99.90;;;;;;6196778;23;20416;-94
2023/05/12 01:25:15;;;;;;;774.03;667.50;;;12.80;99.90;;;;;;6196674;23;20436;-93
2023/05/12 01:27:44;;;;;;;771.63;648.40;;;12.90;99.90;;;;;;6187335;23;20710;-93
2023/05/12 01:30:14;;;;;;;762.17;639.77;;;12.90;99.90;;;;;;6196533;23;20948;-93
2023/05/12 02:04:43;;;;;;;779.00;645.10;;;12.70;99.90;;;;;;6183680;23;20540;-93
2023/05/12 02:07:52;;;;;;;765.87;651.50;;;12.70;99.90;;;;;;6218065;23;20424;-96
2023/05/12 02:25:56;;;;;;;758.07;640.50;;;12.50;99.90;;;;;;6189954;23;20446;-91
2023/05/12 02:34:02;;;;;;;751.17;625.20;;;12.40;99.90;;;;;;6185924;23;20464;-93
2023/05/12 02:36:29;;;;;;;754.80;636.53;;;12.40;99.90;;;;;;6199424;23;20417;-93
2023/05/12 02:39:06;;;;;;;744.10;627.47;;;12.50;99.90;;;;;;6200206;23;20406;-94
2023/05/12 02:41:42;;;;;;;748.40;620.30;;;12.40;99.90;;;;;;6201120;23;20392;-94
2023/05/12 02:44:21;;;;;;;740.87;636.80;;;12.40;99.90;;;;;;6200215;23;20408;-94
2023/05/12 02:47:05;;;;;;;740.27;624.40;;;12.40;99.90;;;;;;6201128;23;20435;-93
2023/05/12 02:49:35;;;;;;;732.87;617.97;;;12.50;99.90;;;;;;6200493;23;20417;-93
2023/05/12 02:52:07;;;;;;;722.87;625.60;;;12.50;99.90;;;;;;6199813;23;20510;-93
2023/05/12 02:54:54;;;;;;;730.67;649.83;;;12.50;99.90;;;;;;6200150;23;20417;-94
2023/05/12 02:57:31;;;;;;;726.37;629.37;;;12.50;99.90;;;;;;6200215;23;20433;-93
2023/05/12 03:00:17;;;;;;;715.63;634.50;;;12.50;99.90;;;;;;6200131;23;20825;-94
2023/05/12 03:03:06;;;;;;;711.17;633.10;;;12.40;99.90;;;;;;6199958;23;20860;-93
2023/05/12 03:05:34;;;;;;;716.33;640.13;;;12.30;99.90;;;;;;6199342;23;20468;-93
2023/05/12 03:08:13;;;;;;;701.23;624.43;;;12.40;99.90;;;;;;6200402;23;20801;-93
2023/05/12 03:10:47;;;;;;;705.43;619.07;;;12.40;99.90;;;;;;6202623;23;20739;-94
2023/05/12 03:13:18;;;;;;;706.20;620.60;;;12.40;99.90;;;;;;6202615;23;20923;-93
2023/05/12 03:15:45;;;;;;;703.57;621.33;;;12.40;99.90;;;;;;6201412;23;20746;-94
2023/05/12 03:18:12;;;;;;;707.37;629.30;;;12.30;99.90;;;;;;6201308;23;20747;-94
2023/05/12 03:20:39;;;;;;;710.33;628.07;;;12.30;99.90;;;;;;6201595;23;20488;-93
2023/05/12 03:23:13;;;;;;;709.90;628.40;;;12.40;99.90;;;;;;6201708;23;20494;-94
2023/05/12 03:25:45;;;;;;;725.87;648.60;;;12.40;99.90;;;;;;6200949;23;20448;-95
2023/05/12 03:28:12;;;;;;;707.40;629.13;;;12.40;99.90;;;;;;6202194;23;20443;-93
2023/05/12 03:30:44;;;;;;;705.87;621.70;;;12.40;99.90;;;;;;6202058;23;20437;-94
2023/05/12 03:33:11;;;;;;;710.03;631.27;;;12.30;99.90;;;;;;6201958;23;20421;-94
2023/05/12 03:35:39;;;;;;;724.93;645.93;;;12.30;99.90;;;;;;6201636;23;20813;-93
2023/05/12 03:38:06;;;;;;;716.67;637.27;;;12.40;99.90;;;;;;6201887;23;20417;-94
2023/05/12 03:40:34;;;;;;;714.37;631.43;;;12.30;99.90;;;;;;6201098;23;20412;-93
2023/05/12 03:43:01;;;;;;;715.87;637.90;;;12.40;99.90;;;;;;6200953;23;20448;-94
2023/05/12 03:45:30;;;;;;;728.07;649.33;;;12.30;99.90;;;;;;6201146;23;20421;-94
2023/05/12 03:48:02;;;;;;;726.67;647.50;;;12.30;99.90;;;;;;6201929;23;20471;-94
2023/05/12 03:50:29;;;;;;;742.23;661.97;;;12.40;99.90;;;;;;6201357;23;20424;-94
2023/05/12 03:52:58;;;;;;;762.00;680.73;;;12.40;99.90;;;;;;6201069;23;20421;-93
2023/05/12 03:55:26;;;;;;;753.63;673.97;;;12.40;99.90;;;;;;6200961;23;20437;-93
2023/05/12 03:57:55;;;;;;;753.87;674.00;;;12.40;99.90;;;;;;6202221;23;20935;-94
2023/05/12 04:00:25;;;;;;;734.50;655.43;;;12.40;99.90;;;;;;6200755;23;20408;-93
2023/05/12 04:02:52;;;;;;;717.20;637.63;;;12.40;99.90;;;;;;6200622;23;20417;-93
2023/05/12 04:05:21;;;;;;;729.23;651.00;;;12.30;99.90;;;;;;6200633;23;20417;-93
2023/05/12 04:07:51;;;;;;;723.70;645.70;;;12.30;99.90;;;;;;6200287;23;20909;-94
2023/05/12 04:10:22;;;;;;;723.40;645.50;;;12.40;99.90;;;;;;6200843;23;20417;-93
2023/05/12 04:12:53;;;;;;;722.07;644.37;;;12.30;99.90;;;;;;6201761;23;20417;-94
2023/05/12 04:15:30;;;;;;;;;;;;;;;;;;;;;
2023/05/12 04:17:58;;;;;;;733.93;655.10;;;12.40;99.90;;;;;;6200950;23;20397;-94
2023/05/12 04:20:26;;;;;;;726.20;647.70;;;12.40;99.90;;;;;;6199511;23;20413;-94
2023/05/12 04:22:56;;;;;;;729.80;650.93;;;12.40;99.90;;;;;;6200122;23;20468;-93
2023/05/12 04:25:33;;;;;;;739.47;660.47;;;12.40;99.90;;;;;;6201202;23;20409;-94
2023/05/12 04:28:09;;;;;;;727.53;648.93;;;12.50;99.90;;;;;;6200537;23;20476;-94
2023/05/12 04:30:39;;;;;;;719.10;640.63;;;12.50;99.90;;;;;;6202182;23;20432;-94
2023/05/12 04:33:14;;;;;;;733.23;654.50;;;12.50;99.90;;;;;;6200581;23;20762;-94
2023/05/12 04:36:19;;;;;;;;;;;;;;;;;;;;;
2023/05/12 04:39:18;;;;;;;731.60;654.10;;;12.60;99.90;;;;;;6148876;23;20412;-93
2023/05/12 04:42:23;;;;;;;720.17;642.87;;;12.60;99.90;;;;;;6164697;23;20417;-93
2023/05/12 05:37:17;;;;;;;694.13;639.30;;;13.10;99.90;;;;;;5906297;24;20466;-92
2023/05/12 06:43:20;;;;;;;499.17;480.90;;;14.00;99.90;;;;;;5721534;24;20876;-91
2023/05/12 13:42:51;;;;;;;;;;;;;;;;;;;;;
2023/05/12 19:32:53;;;;;;;9.47;5.70;;;14.80;95.60;;;;;;6187341;22;20534;-93
2023/05/12 19:35:24;;;;;;;9.20;5.30;;;14.60;96.20;;;;;;6233268;23;20406;-94
2023/05/12 19:37:51;;;;;;;9.40;5.93;;;14.60;96.10;;;;;;6232969;23;20873;-94
2023/05/12 19:40:19;;;;;;;11.00;5.47;;;14.60;96.80;;;;;;6233448;23;20440;-92
2023/05/12 19:42:49;;;;;;;11.80;7.90;;;14.70;96.60;;;;;;6232803;23;20482;-93
2023/05/12 19:45:16;;;;;;;9.47;6.23;;;14.60;99.20;;;;;;6233040;23;20439;-94
2023/05/12 19:47:44;;;;;;;11.00;6.77;;;14.50;99.50;;;;;;6232621;23;20411;-94
2023/05/12 19:50:13;;;;;;;10.27;6.77;;;14.30;99.90;;;;;;6232767;23;20436;-94
2023/05/12 19:52:41;;;;;;;11.40;7.90;;;14.20;99.90;;;;;;6233303;23;20480;-94
2023/05/12 19:55:12;;;;;;;11.10;8.13;;;14.10;99.90;;;;;;6232507;23;20812;-94
2023/05/12 19:57:42;;;;;;;12.90;9.47;;;14.00;99.90;;;;;;6233036;23;20404;-94
2023/05/12 20:00:13;;;;;;;11.27;9.13;;;14.00;99.90;;;;;;6233023;23;20454;-93
2023/05/12 20:02:41;;;;;;;11.00;9.90;;;13.90;99.90;;;;;;6233131;23;20405;-94
2023/05/12 20:05:09;;;;;;;17.37;15.53;;;13.90;99.90;;;;;;6232391;23;20416;-94
2023/05/12 20:07:39;;;;;;;30.27;28.37;;;13.80;99.90;;;;;;6232749;23;20423;-93
2023/05/12 20:10:08;;;;;;;37.10;34.87;;;13.80;99.90;;;;;;6232465;23;20486;-93
2023/05/12 20:12:38;;;;;;;51.50;48.47;;;13.70;99.90;;;;;;6232624;23;20416;-94
2023/05/12 20:15:09;;;;;;;36.80;34.60;;;13.70;99.90;;;;;;6232618;23;20419;-94
2023/05/12 20:17:36;;;;;;;72.20;68.90;;;13.50;99.90;;;;;;6232399;23;20435;-94
2023/05/12 20:20:04;;;;;;;104.83;100.73;;;13.50;99.90;;;;;;6232599;23;20415;-94
2023/05/12 20:22:37;;;;;;;104.20;99.93;;;13.50;99.90;;;;;;6232662;23;20471;-94
2023/05/12 20:25:07;;;;;;;145.10;139.60;;;13.40;99.90;;;;;;6232214;23;20416;-94
2023/05/12 20:27:34;;;;;;;108.57;103.97;;;13.30;99.90;;;;;;6232770;23;20409;-94
2023/05/12 20:30:02;;;;;;;139.17;133.80;;;13.40;99.90;;;;;;6232769;23;20462;-94
2023/05/12 20:32:30;;;;;;;198.10;190.53;;;13.30;99.90;;;;;;6222751;23;20474;-94
2023/05/12 20:34:59;;;;;;;253.03;243.60;;;13.20;99.90;;;;;;6232363;23;20737;-94
2023/05/12 20:37:26;;;;;;;249.67;240.33;;;13.20;99.90;;;;;;6232135;23;20931;-94
2023/05/12 20:39:55;;;;;;;311.33;298.93;;;13.10;99.90;;;;;;6232201;23;20417;-94
2023/05/12 20:49:09;;;;;;;385.13;368.30;;;12.90;99.90;;;;;;6162780;23;20447;-94
2023/05/12 20:51:38;;;;;;;404.67;386.50;;;12.70;99.90;;;;;;6234699;23;20487;-93
2023/05/12 20:54:08;;;;;;;366.13;349.70;;;12.60;99.90;;;;;;6234278;23;20400;-95
2023/05/12 20:56:36;;;;;;;408.83;389.10;;;12.40;99.90;;;;;;6234448;23;20440;-93
2023/05/12 20:59:03;;;;;;;432.77;411.17;;;12.30;99.90;;;;;;6232908;23;20475;-93
2023/05/12 21:01:31;;;;;;;487.63;461.43;;;12.30;99.90;;;;;;6223108;23;20416;-93
2023/05/12 21:04:00;;;;;;;579.60;544.07;;;12.20;99.90;;;;;;6232719;23;20424;-93
2023/05/12 21:06:29;;;;;;;601.97;566.97;;;12.30;99.90;;;;;;6232720;23;20428;-94
2023/05/12 21:08:56;;;;;;;674.60;631.60;;;12.10;99.90;;;;;;6233086;23;20400;-94
2023/05/12 21:11:25;;;;;;;694.67;649.73;;;12.00;99.90;;;;;;6232448;23;20510;-94
2023/05/12 21:13:53;;;;;;;692.67;647.27;;;12.00;99.90;;;;;;6232352;23;20419;-94
2023/05/12 21:16:20;;;;;;;676.70;634.20;;;12.00;99.90;;;;;;6232959;23;20426;-92
2023/05/12 21:18:47;;;;;;;681.27;638.27;;;11.90;99.90;;;;;;6232658;23;20947;-93
2023/05/12 21:21:14;;;;;;;655.50;616.77;;;11.80;99.90;;;;;;6222917;23;20412;-94
2023/05/12 21:23:43;;;;;;;655.70;615.73;;;11.80;99.90;;;;;;6232667;23;20420;-94
2023/05/12 21:26:11;;;;;;;682.20;638.43;;;11.90;99.90;;;;;;6232432;23;20412;-93
2023/05/12 21:28:38;;;;;;;670.17;631.30;;;11.80;99.90;;;;;;6222793;23;20462;-93
2023/05/12 21:31:05;;;;;;;655.47;618.50;;;11.80;99.90;;;;;;6222647;23;20435;-94
2023/05/12 21:33:33;;;;;;;689.73;648.60;;;11.80;99.90;;;;;;6232645;23;20446;-93
2023/05/12 21:36:00;;;;;;;707.43;666.97;;;11.70;99.90;;;;;;6222741;23;20413;-94
2023/05/12 21:38:27;;;;;;;712.57;673.37;;;11.60;99.90;;;;;;6223065;23;20466;-94
2023/05/12 21:40:56;;;;;;;719.30;679.23;;;11.50;99.90;;;;;;6232351;23;20430;-93
2023/05/12 21:43:23;;;;;;;743.57;701.17;;;11.40;99.90;;;;;;6232748;23;20408;-92
2023/05/12 21:45:51;;;;;;;727.27;688.67;;;11.40;99.90;;;;;;6231362;23;20444;-93
2023/05/12 21:48:18;;;;;;;758.50;717.97;;;11.40;99.90;;;;;;6232238;23;20729;-94
2023/05/12 21:50:45;;;;;;;789.83;745.77;;;11.40;99.90;;;;;;6232649;23;20615;-94
2023/05/12 21:53:16;;;;;;;806.73;760.93;;;11.40;99.90;;;;;;6234151;23;20416;-93
2023/05/12 21:55:45;;;;;;;821.23;773.07;;;11.30;99.90;;;;;;6234642;23;20458;-94
2023/05/12 21:58:14;;;;;;;825.90;775.03;;;11.20;99.90;;;;;;6234675;23;20408;-93
2023/05/12 22:00:41;;;;;;;810.30;758.50;;;11.30;99.90;;;;;;6234823;23;20412;-94
2023/05/12 22:03:10;;;;;;;809.10;756.30;;;11.10;99.90;;;;;;6224603;23;20503;-93
2023/05/12 22:05:38;;;;;;;812.73;757.27;;;11.00;99.90;;;;;;6234428;23;20504;-95
2023/05/12 22:08:05;;;;;;;811.70;756.33;;;11.00;99.90;;;;;;6234783;23;20892;-94
2023/05/12 22:10:35;;;;;;;800.70;746.30;;;10.90;99.90;;;;;;6234204;23;20432;-94
2023/05/12 22:13:06;;;;;;;815.07;760.00;;;10.90;99.90;;;;;;6234518;23;20416;-94
2023/05/12 22:15:35;;;;;;;808.90;755.00;;;10.90;99.90;;;;;;6234147;23;20891;-94
2023/05/12 22:18:03;;;;;;;800.70;744.87;;;10.80;99.90;;;;;;6234341;23;20917;-93
2023/05/12 22:20:31;;;;;;;797.30;742.57;;;10.90;99.90;;;;;;6234401;23;20788;-94
2023/05/12 22:22:59;;;;;;;826.50;769.03;;;10.80;99.90;;;;;;6234444;23;20459;-93
2023/05/12 22:25:26;;;;;;;827.70;769.60;;;10.70;99.90;;;;;;6234181;23;20423;-94
2023/05/12 22:27:53;;;;;;;818.53;762.10;;;10.70;99.90;;;;;;6234619;23;20435;-93
2023/05/12 22:30:21;;;;;;;808.83;750.60;;;10.70;99.90;;;;;;6234819;23;20411;-94
2023/05/12 22:32:50;;;;;;;832.77;768.43;;;10.70;99.90;;;;;;6234449;23;20431;-93
2023/05/12 22:35:19;;;;;;;835.17;769.17;;;10.80;99.90;;;;;;6234625;23;20412;-93
2023/05/12 22:37:46;;;;;;;852.10;786.23;;;10.90;99.90;;;;;;6224254;23;20423;-93
2023/05/12 22:40:13;;;;;;;840.43;775.20;;;10.90;99.90;;;;;;6234696;23;20484;-93
2023/05/12 22:42:41;;;;;;;841.27;774.90;;;10.90;99.90;;;;;;6234813;23;20487;-94
2023/05/12 22:45:09;;;;;;;857.53;790.10;;;10.90;99.90;;;;;;6233486;23;20415;-94
2023/05/12 22:47:37;;;;;;;864.57;795.57;;;10.80;99.90;;;;;;6234221;23;20411;-93
2023/05/12 22:50:07;;;;;;;852.27;785.67;;;10.80;99.90;;;;;;6233735;23;20419;-93
2023/05/12 22:52:35;;;;;;;858.10;790.93;;;10.70;99.90;;;;;;6234451;23;20451;-94
2023/05/12 22:55:03;;;;;;;870.97;803.83;;;10.80;99.90;;;;;;6234655;23;20973;-94
2023/05/12 22:57:32;;;;;;;871.93;804.43;;;10.70;99.90;;;;;;6233793;23;20422;-94
2023/05/12 22:59:59;;;;;;;868.77;800.97;;;10.70;99.90;;;;;;6233924;23;20404;-93
2023/05/12 23:02:27;;;;;;;868.63;801.30;;;10.70;99.90;;;;;;6223511;23;20455;-94
2023/05/12 23:04:54;;;;;;;865.40;798.97;;;10.60;99.90;;;;;;6234807;23;20474;-94
2023/05/12 23:07:22;;;;;;;864.77;800.40;;;10.60;99.90;;;;;;6224136;23;20412;-94
2023/05/12 23:09:49;;;;;;;855.47;791.27;;;10.60;99.90;;;;;;6234200;23;20416;-93
2023/05/12 23:12:17;;;;;;;859.33;793.37;;;10.50;99.90;;;;;;6233418;23;20428;-94
2023/05/12 23:14:44;;;;;;;863.47;795.53;;;10.50;99.90;;;;;;6234605;23;20412;-93
2023/05/12 23:17:11;;;;;;;863.33;795.43;;;10.50;99.90;;;;;;6234377;23;20450;-93
2023/05/12 23:19:38;;;;;;;857.10;789.17;;;10.50;99.90;;;;;;6234408;23;20416;-93
2023/05/12 23:22:06;;;;;;;854.60;787.23;;;10.50;99.90;;;;;;6223780;23;20412;-94
2023/05/12 23:24:35;;;;;;;878.03;808.57;;;10.40;99.90;;;;;;6234072;23;20423;-94
2023/05/12 23:27:03;;;;;;;873.90;804.40;;;10.40;99.90;;;;;;6233856;23;20872;-94
2023/05/12 23:29:30;;;;;;;859.30;790.07;;;10.40;99.90;;;;;;6233939;23;20952;-93
2023/05/12 23:31:58;;;;;;;856.87;787.23;;;10.40;99.90;;;;;;6233043;23;20444;-92
2023/05/12 23:34:25;;;;;;;864.07;793.70;;;10.30;99.90;;;;;;6232575;23;20436;-94
2023/05/12 23:36:52;;;;;;;858.70;787.30;;;10.40;99.90;;;;;;6233482;23;20416;-93
2023/05/12 23:39:19;;;;;;;875.23;803.33;;;10.30;99.90;;;;;;6223511;23;20415;-93
2023/05/12 23:41:52;;;;;;;866.80;794.33;;;10.20;99.90;;;;;;6233409;23;20490;-93
2023/05/12 23:44:20;;;;;;;870.53;796.87;;;10.10;99.90;;;;;;6233615;23;20384;-94
2023/05/12 23:46:48;;;;;;;858.97;785.77;;;10.20;99.90;;;;;;6233497;23;20415;-93
2023/05/12 23:49:15;;;;;;;857.23;783.83;;;10.10;99.90;;;;;;6233239;23;20416;-93
2023/05/12 23:51:43;;;;;;;866.90;793.00;;;10.10;99.90;;;;;;6232572;23;20503;-92
2023/05/12 23:54:10;;;;;;;864.47;788.13;;;10.00;99.90;;;;;;6233312;23;20451;-93
2023/05/12 23:56:37;;;;;;;864.33;786.80;;;10.10;99.90;;;;;;6232952;23;20419;-93
2023/05/12 23:59:06;;;;;;;864.50;785.93;;;10.20;99.90;;;;;;6233746;23;20486;-94
